createdAt,value
2023-05-20T00:02:55.982Z,101020.91
2023-05-20T00:05:57.910Z,101015.19
2023-05-20T00:09:00.322Z,101023.06
2023-05-20T00:12:02.839Z,101008.25
2023-05-20T00:15:05.476Z,101008.69
2023-05-20T00:18:07.606Z,101003.97
2023-05-20T00:21:09.517Z,100992.97
2023-05-20T00:24:11.344Z,100989.50
2023-05-20T00:27:13.239Z,100985.81
2023-05-20T00:30:15.208Z,100981.41
2023-05-20T00:33:17.109Z,100990.28
2023-05-20T00:36:18.970Z,100981.50
2023-05-20T00:39:20.729Z,100985.81
2023-05-20T00:42:27.757Z,100985.72
2023-05-20T00:45:29.731Z,100983.34
2023-05-20T00:48:40.445Z,100983.94
2023-05-20T00:51:42.226Z,100966.69
2023-05-20T00:54:44.314Z,100969.94
2023-05-20T00:57:46.394Z,100971.44
2023-05-20T01:00:48.350Z,100972.41
2023-05-20T01:03:51.420Z,100984.16
2023-05-20T01:06:53.407Z,100984.94
2023-05-20T01:09:56.330Z,100978.22
2023-05-20T01:13:02.110Z,100977.56
2023-05-20T01:16:04.293Z,100992.38
2023-05-20T01:19:14.722Z,100991.19
2023-05-20T01:22:17.038Z,100994.44
2023-05-20T01:25:18.917Z,100992.53
2023-05-20T01:28:21.351Z,100984.75
2023-05-20T01:31:33.105Z,100993.34
2023-05-20T01:34:36.458Z,100998.94
2023-05-20T01:37:40.145Z,100985.53
2023-05-20T01:40:43.084Z,100989.19
2023-05-20T01:43:45.358Z,100991.19
2023-05-20T01:46:50.853Z,100986.00
2023-05-20T01:49:54.228Z,100988.00
2023-05-20T01:52:56.055Z,100987.28
2023-05-20T01:55:57.919Z,100981.84
2023-05-20T01:58:59.901Z,100991.78
2023-05-20T02:02:01.747Z,100990.50
2023-05-20T02:05:03.665Z,100993.31
2023-05-20T02:08:05.635Z,100992.91
2023-05-20T02:11:07.544Z,100990.75
2023-05-20T02:14:09.257Z,101000.47
2023-05-20T02:17:11.085Z,101000.47
2023-05-20T02:20:13.963Z,100999.91
2023-05-20T02:23:15.841Z,101000.81
2023-05-20T02:26:17.687Z,101004.91
2023-05-20T02:29:22.103Z,100999.53
2023-05-20T02:32:28.038Z,101002.94
2023-05-20T02:35:29.822Z,100996.69
2023-05-20T02:38:32.418Z,100994.13
2023-05-20T02:41:34.287Z,100997.19
2023-05-20T02:44:36.316Z,100994.28
2023-05-20T02:47:38.224Z,101000.69
2023-05-20T02:50:40.476Z,101004.97
2023-05-20T02:53:42.394Z,101008.91
2023-05-20T02:56:44.263Z,101000.81
2023-05-20T02:59:46.117Z,101000.81
2023-05-20T03:02:48.007Z,101003.00
2023-05-20T03:05:50.183Z,101011.94
2023-05-20T03:08:52.013Z,101005.28
2023-05-20T03:11:53.831Z,101006.34
2023-05-20T03:14:55.760Z,101008.03
2023-05-20T03:17:57.613Z,101007.59
2023-05-20T03:20:59.327Z,101017.09
2023-05-20T03:24:01.160Z,101019.56
2023-05-20T03:27:03.091Z,101019.75
2023-05-20T03:30:05.451Z,101025.06
2023-05-20T03:33:07.706Z,101022.31
2023-05-20T03:36:09.458Z,101016.47
2023-05-20T03:39:11.551Z,101018.53
2023-05-20T03:42:13.274Z,101019.53
2023-05-20T03:45:15.008Z,101014.72
2023-05-20T03:48:16.778Z,101012.47
2023-05-20T03:51:18.515Z,100995.12
2023-05-20T03:54:20.338Z,100991.88
2023-05-20T03:57:22.540Z,100980.16
2023-05-20T04:00:24.301Z,100977.50
2023-05-20T04:03:26.255Z,101000.44
2023-05-20T04:06:28.038Z,100999.97
2023-05-20T04:09:29.793Z,100974.88
2023-05-20T04:12:32.550Z,100959.28
2023-05-20T04:15:38.309Z,100949.94
2023-05-20T04:18:41.132Z,100957.22
2023-05-20T04:21:45.032Z,100949.03
2023-05-20T04:24:47.103Z,100965.94
2023-05-20T04:27:49.805Z,101022.28
2023-05-20T04:31:04.434Z,101061.00
2023-05-20T04:34:06.339Z,101003.22
2023-05-20T04:37:10.736Z,100946.00
2023-05-20T04:40:13.626Z,100958.84
2023-05-20T04:43:15.693Z,100994.69
2023-05-20T04:46:17.513Z,101012.97
2023-05-20T04:49:19.316Z,101032.00
2023-05-20T04:52:21.078Z,101032.28
2023-05-20T04:55:25.028Z,101024.78
2023-05-20T04:58:26.908Z,101027.34
2023-05-20T05:01:28.750Z,101028.84
2023-05-20T05:04:30.666Z,101012.25
2023-05-20T05:07:32.590Z,101022.44
2023-05-20T05:10:35.235Z,101021.31
2023-05-20T05:13:36.995Z,101005.28
2023-05-20T05:16:38.836Z,101014.22
2023-05-20T05:19:40.664Z,101009.84
2023-05-20T05:22:42.530Z,101013.91
2023-05-20T05:25:44.327Z,101018.31
2023-05-20T05:28:46.145Z,101014.44
2023-05-20T05:31:48.016Z,101008.03
2023-05-20T05:34:49.825Z,101007.47
2023-05-20T05:37:52.703Z,101001.34
2023-05-20T05:40:54.554Z,101002.34
2023-05-20T05:43:56.451Z,100982.00
2023-05-20T05:46:58.369Z,101001.16
2023-05-20T05:50:00.405Z,100990.44
2023-05-20T05:53:02.660Z,100989.81
2023-05-20T05:56:04.589Z,100972.97
2023-05-20T05:59:06.405Z,100984.66
2023-05-20T06:02:10.316Z,100981.41
2023-05-20T06:05:12.144Z,100977.38
2023-05-20T06:08:14.114Z,100981.09
2023-05-20T06:11:15.960Z,100967.81
2023-05-20T06:14:17.764Z,100965.38
2023-05-20T06:17:19.649Z,100950.62
2023-05-20T06:20:21.453Z,100939.25
2023-05-20T06:23:23.225Z,100958.09
2023-05-20T06:26:26.568Z,100942.59
2023-05-20T06:29:29.235Z,100954.34
2023-05-20T06:32:31.223Z,100962.56
2023-05-20T06:35:35.027Z,100941.50
2023-05-20T06:38:37.162Z,100949.88
2023-05-20T06:41:41.234Z,100941.53
2023-05-20T06:44:44.736Z,100944.69
2023-05-20T06:47:48.024Z,100911.16
2023-05-20T06:50:50.316Z,100922.84
2023-05-20T06:53:52.229Z,100931.31
2023-05-20T06:56:54.251Z,100917.94
2023-05-20T06:59:56.044Z,100922.84
2023-05-20T07:02:58.070Z,100898.84
2023-05-20T07:06:00.027Z,100911.75
2023-05-20T07:09:01.954Z,100919.25
2023-05-20T07:12:04.028Z,100884.50
2023-05-20T07:15:06.284Z,100909.47
2023-05-20T07:18:08.461Z,100913.78
2023-05-20T07:21:10.561Z,100900.31
2023-05-20T07:24:12.373Z,100884.59
2023-05-20T07:27:14.255Z,100904.00
2023-05-20T07:30:16.138Z,100887.94
2023-05-20T07:33:19.283Z,100893.22
2023-05-20T07:36:21.396Z,100869.66
2023-05-20T07:39:23.826Z,100862.47
2023-05-20T07:42:25.555Z,100864.03
2023-05-20T07:45:27.378Z,100871.19
2023-05-20T07:48:29.149Z,100895.97
2023-05-20T07:51:31.736Z,100907.41
2023-05-20T07:54:34.794Z,100891.37
2023-05-20T07:57:36.598Z,100894.34
2023-05-20T08:00:38.370Z,100913.31
2023-05-20T08:03:40.318Z,100919.88
2023-05-20T08:06:44.479Z,100908.28
2023-05-20T08:09:46.242Z,100896.31
2023-05-20T08:12:48.119Z,100894.97
2023-05-20T08:15:49.836Z,100882.50
2023-05-20T08:18:51.778Z,100894.31
2023-05-20T08:21:54.421Z,100856.22
2023-05-20T08:24:56.412Z,100868.94
2023-05-20T08:27:58.215Z,100863.38
2023-05-20T08:31:02.455Z,100873.03
2023-05-20T08:34:04.570Z,100836.13
2023-05-20T08:37:06.481Z,100872.88
2023-05-20T08:40:09.868Z,100872.41
2023-05-20T08:43:11.694Z,100858.94
2023-05-20T08:46:13.998Z,100858.00
2023-05-20T08:49:17.158Z,100862.97
2023-05-20T08:52:21.740Z,100864.22
2023-05-20T08:55:52.661Z,100856.34
2023-05-20T08:58:54.979Z,100854.75
2023-05-20T09:01:56.791Z,100863.87
2023-05-20T09:04:58.653Z,100853.09
2023-05-20T09:08:11.406Z,100859.78
2023-05-20T09:11:13.403Z,100853.44
2023-05-20T09:14:15.245Z,100836.97
2023-05-20T09:17:18.369Z,100836.87
2023-05-20T09:20:22.723Z,100843.25
2023-05-20T09:23:28.040Z,100819.94
2023-05-20T09:26:30.189Z,100852.16
2023-05-20T09:29:33.694Z,100844.63
2023-05-20T09:32:35.875Z,100843.69
2023-05-20T09:35:38.160Z,100823.94
2023-05-20T09:38:40.422Z,100808.56
2023-05-20T09:42:12.432Z,100803.09
2023-05-20T09:45:14.209Z,100777.31
2023-05-20T09:48:16.325Z,100810.94
2023-05-20T09:51:18.277Z,100793.88
2023-05-20T09:54:20.532Z,100792.69
2023-05-20T09:57:22.427Z,100781.31
2023-05-20T10:00:24.238Z,100790.41
2023-05-20T10:03:28.319Z,100781.47
2023-05-20T10:06:34.226Z,100772.44
2023-05-20T10:09:57.366Z,100761.03
2023-05-20T10:13:14.416Z,100783.97
2023-05-20T10:16:30.656Z,100762.34
2023-05-20T10:19:33.668Z,100774.31
2023-05-20T10:22:35.681Z,100770.00
2023-05-20T10:25:37.578Z,100749.72
2023-05-20T10:28:41.362Z,100728.00
2023-05-20T10:31:49.755Z,100748.75
2023-05-20T10:34:51.815Z,100707.38
2023-05-20T10:37:55.366Z,100733.00
2023-05-20T10:41:09.272Z,100726.41
2023-05-20T10:44:11.238Z,100712.50
2023-05-20T10:50:36.200Z,100689.53
2023-05-20T10:53:42.153Z,100706.22
2023-05-20T10:56:54.679Z,100666.03
2023-05-20T10:59:57.085Z,100669.03
2023-05-20T11:02:59.204Z,100672.69
2023-05-20T11:06:01.200Z,100657.75
2023-05-20T11:09:10.183Z,100697.72
2023-05-20T11:12:12.240Z,100675.03
2023-05-20T11:15:14.055Z,100662.19
2023-05-20T11:18:17.876Z,100656.59
2023-05-20T11:21:20.597Z,100649.94
2023-05-20T11:24:27.795Z,100679.09
2023-05-20T11:27:29.578Z,100652.69
2023-05-20T11:30:31.431Z,100662.88
2023-05-20T11:33:33.248Z,100662.31
2023-05-20T11:36:35.042Z,100641.03
2023-05-20T11:39:37.750Z,100663.63
2023-05-20T11:42:39.675Z,100666.78
2023-05-20T11:45:42.727Z,100673.22
2023-05-20T11:49:00.170Z,100669.84
2023-05-20T11:52:03.419Z,100672.62
2023-05-20T11:55:05.679Z,100664.53
2023-05-20T11:58:07.445Z,100687.34
2023-05-20T12:01:21.116Z,100649.59
2023-05-20T12:04:24.481Z,100681.34
2023-05-20T12:07:26.850Z,100669.66
2023-05-20T12:10:28.818Z,100632.16
2023-05-20T12:13:31.043Z,100644.19
2023-05-20T12:16:34.812Z,100660.87
2023-05-20T12:19:37.761Z,100655.50
2023-05-20T12:22:40.815Z,100615.72
2023-05-20T12:25:42.799Z,100589.59
2023-05-20T12:28:44.631Z,100610.66
2023-05-20T12:31:46.991Z,100637.16
2023-05-20T12:34:48.818Z,100613.03
2023-05-20T12:37:50.600Z,100610.88
2023-05-20T12:40:52.394Z,100623.59
2023-05-20T12:43:54.425Z,100599.16
2023-05-20T12:46:56.498Z,100593.00
2023-05-20T12:49:58.594Z,100613.28
2023-05-20T12:53:00.439Z,100630.37
2023-05-20T12:56:02.302Z,100611.91
2023-05-20T12:59:04.166Z,100618.88
2023-05-20T13:02:06.021Z,100608.03
2023-05-20T13:05:08.102Z,100613.44
2023-05-20T13:08:11.175Z,100590.09
2023-05-20T13:11:13.085Z,100588.00
2023-05-20T13:14:16.960Z,100578.63
2023-05-20T13:17:19.360Z,100594.78
2023-05-20T13:20:21.619Z,100581.53
2023-05-20T13:23:23.339Z,100607.22
2023-05-20T13:26:25.101Z,100588.66
2023-05-20T13:29:29.564Z,100583.44
2023-05-20T13:32:31.500Z,100607.13
2023-05-20T13:35:34.042Z,100602.09
2023-05-20T13:38:37.452Z,100576.50
2023-05-20T13:41:39.509Z,100578.44
2023-05-20T13:44:41.299Z,100591.12
2023-05-20T13:47:43.153Z,100577.97
2023-05-20T13:50:44.935Z,100549.16
2023-05-20T13:53:46.717Z,100549.16
2023-05-20T13:56:48.843Z,100554.44
2023-05-20T13:59:50.694Z,100526.00
2023-05-20T14:02:53.596Z,100547.91
2023-05-20T14:05:55.948Z,100563.22
2023-05-20T14:08:57.784Z,100546.66
2023-05-20T14:11:59.683Z,100520.50
2023-05-20T14:15:01.467Z,100531.16
2023-05-20T14:18:03.453Z,100494.31
2023-05-20T14:21:05.436Z,100521.03
2023-05-20T14:24:07.328Z,100516.41
2023-05-20T14:27:09.099Z,100529.03
2023-05-20T14:30:11.358Z,100532.03
2023-05-20T14:33:13.255Z,100530.31
2023-05-20T14:36:15.105Z,100514.38
2023-05-20T14:39:17.171Z,100522.56
2023-05-20T14:42:18.944Z,100514.69
2023-05-20T14:45:20.795Z,100515.47
2023-05-20T14:48:22.661Z,100514.56
2023-05-20T14:51:24.479Z,100522.00
2023-05-20T14:54:27.677Z,100501.94
2023-05-20T14:57:29.620Z,100519.91
2023-05-20T15:00:32.862Z,100514.47
2023-05-20T15:03:35.461Z,100516.59
2023-05-20T15:06:37.526Z,100526.84
2023-05-20T15:09:40.608Z,100545.22
2023-05-20T15:12:43.835Z,100548.16
2023-05-20T15:15:47.047Z,100539.53
2023-05-20T15:18:52.039Z,100543.75
2023-05-20T15:21:55.050Z,100521.78
2023-05-20T15:24:56.885Z,100534.22
2023-05-20T15:27:58.633Z,100536.06
2023-05-20T15:31:00.573Z,100538.63
2023-05-20T15:34:03.401Z,100522.94
2023-05-20T15:37:05.453Z,100530.72
2023-05-20T15:40:08.516Z,100533.25
2023-05-20T15:43:10.381Z,100531.66
2023-05-20T15:46:12.470Z,100527.41
2023-05-20T15:49:14.309Z,100538.22
2023-05-20T15:52:16.168Z,100534.63
2023-05-20T15:55:18.074Z,100530.62
2023-05-20T15:58:19.880Z,100535.25
2023-05-20T16:01:23.353Z,100533.56
2023-05-20T16:04:25.403Z,100507.25
2023-05-20T16:07:27.612Z,100517.16
2023-05-20T16:10:32.772Z,100531.56
2023-05-20T16:13:34.899Z,100522.38
2023-05-20T16:16:36.719Z,100529.19
2023-05-20T16:19:38.836Z,100522.09
2023-05-20T16:22:40.912Z,100518.50
2023-05-20T16:25:42.698Z,100537.12
2023-05-20T16:28:44.584Z,100536.72
2023-05-20T16:31:47.141Z,100541.75
2023-05-20T16:34:49.353Z,100553.84
2023-05-20T16:37:51.178Z,100525.59
2023-05-20T16:40:53.038Z,100552.34
2023-05-20T16:43:54.825Z,100541.75
2023-05-20T16:46:56.674Z,100554.31
2023-05-20T16:49:59.085Z,100546.81
2023-05-20T16:53:01.094Z,100548.87
2023-05-20T16:56:03.395Z,100553.03
2023-05-20T16:59:05.169Z,100563.22
2023-05-20T17:02:06.968Z,100566.19
2023-05-20T17:05:09.253Z,100567.62
2023-05-20T17:08:10.998Z,100571.81
2023-05-20T17:11:12.848Z,100569.91
2023-05-20T17:14:14.627Z,100588.59
2023-05-20T17:17:16.545Z,100596.47
2023-05-20T17:20:18.342Z,100599.06
2023-05-20T17:23:20.134Z,100607.50
2023-05-20T17:26:22.384Z,100604.09
2023-05-20T17:29:24.285Z,100610.97
2023-05-20T17:32:26.457Z,100616.81
2023-05-20T17:35:34.326Z,100623.84
2023-05-20T17:38:37.510Z,100620.28
2023-05-20T17:41:40.486Z,100620.47
2023-05-20T17:44:43.618Z,100623.75
2023-05-20T17:47:45.485Z,100622.69
2023-05-20T17:50:47.383Z,100629.69
2023-05-20T17:53:49.194Z,100649.53
2023-05-20T17:56:51.187Z,100656.56
2023-05-20T17:59:54.506Z,100662.69
2023-05-20T18:03:00.249Z,100667.97
2023-05-20T18:06:05.611Z,100665.03
2023-05-20T18:09:07.661Z,100677.28
2023-05-20T18:12:09.546Z,100689.53
2023-05-20T18:15:14.225Z,100688.94
2023-05-20T18:18:16.241Z,100695.88
2023-05-20T18:21:18.015Z,100690.41
2023-05-20T18:24:20.753Z,100689.50
2023-05-20T18:27:22.563Z,100698.44
2023-05-20T18:30:24.412Z,100695.09
2023-05-20T18:33:26.304Z,100695.91
2023-05-20T18:36:30.058Z,100701.47
2023-05-20T18:39:31.923Z,100700.97
2023-05-20T18:42:33.726Z,100711.09
2023-05-20T18:45:35.639Z,100702.09
2023-05-20T18:48:37.674Z,100701.63
2023-05-20T18:51:39.880Z,100710.66
2023-05-20T18:54:41.676Z,100705.81
2023-05-20T18:57:43.806Z,100727.72
2023-05-20T19:00:46.034Z,100721.06
2023-05-20T19:03:47.965Z,100720.84
2023-05-20T19:06:49.776Z,100730.59
2023-05-20T19:09:52.074Z,100732.09
2023-05-20T19:12:53.891Z,100720.34
2023-05-20T19:15:58.013Z,100723.25
2023-05-20T19:18:59.822Z,100724.97
2023-05-20T19:22:02.048Z,100728.44
2023-05-20T19:25:05.211Z,100719.84
2023-05-20T19:28:06.971Z,100743.66
2023-05-20T19:31:08.764Z,100728.06
2023-05-20T19:34:10.603Z,100727.06
2023-05-20T19:37:12.406Z,100743.34
2023-05-20T19:40:14.373Z,100754.47
2023-05-20T19:43:16.172Z,100742.06
2023-05-20T19:46:18.001Z,100740.59
2023-05-20T19:49:20.560Z,100734.19
2023-05-20T19:52:22.425Z,100750.03
2023-05-20T19:55:24.550Z,100747.88
2023-05-20T19:58:26.319Z,100760.38
2023-05-20T20:01:28.616Z,100752.00
2023-05-20T20:04:30.635Z,100740.53
2023-05-20T20:07:32.831Z,100740.41
2023-05-20T20:10:35.699Z,100749.41
2023-05-20T20:13:37.578Z,100744.81
2023-05-20T20:16:39.429Z,100743.22
2023-05-20T20:19:42.266Z,100753.97
2023-05-20T20:22:44.422Z,100758.47
2023-05-20T20:25:48.176Z,100748.59
2023-05-20T20:28:49.914Z,100744.16
2023-05-20T20:31:52.363Z,100770.09
2023-05-20T20:34:54.457Z,100778.00
2023-05-20T20:37:56.327Z,100766.56
2023-05-20T20:40:59.358Z,100745.78
2023-05-20T20:44:03.685Z,100745.16
2023-05-20T20:47:05.552Z,100729.81
2023-05-20T20:50:08.111Z,100730.16
2023-05-20T20:53:10.029Z,100729.91
2023-05-20T20:56:12.467Z,100723.22
2023-05-20T20:59:15.736Z,100710.78
2023-05-20T21:02:17.785Z,100720.25
2023-05-20T21:05:21.474Z,100728.00
2023-05-20T21:08:27.919Z,100728.16
2023-05-20T21:11:29.900Z,100718.44
2023-05-20T21:14:31.714Z,100721.31
2023-05-20T21:17:33.655Z,100727.56
2023-05-20T21:20:35.853Z,100733.66
2023-05-20T21:23:38.392Z,100740.56
2023-05-20T21:26:40.362Z,100739.97
2023-05-20T21:29:42.178Z,100746.56
2023-05-20T21:32:44.854Z,100727.91
2023-05-20T21:35:46.658Z,100738.31
2023-05-20T21:38:48.445Z,100738.31
2023-05-20T21:41:50.234Z,100736.09
2023-05-20T21:44:51.950Z,100742.41
2023-05-20T21:47:53.896Z,100739.19
2023-05-20T21:50:56.218Z,100726.28
2023-05-20T21:53:58.143Z,100717.31
2023-05-20T21:56:59.926Z,100717.19
2023-05-20T22:00:01.869Z,100722.38
2023-05-20T22:03:03.744Z,100729.50
2023-05-20T22:06:06.592Z,100741.84
2023-05-20T22:09:08.506Z,100741.13
2023-05-20T22:12:11.207Z,100731.16
2023-05-20T22:15:13.440Z,100721.94
2023-05-20T22:18:15.387Z,100723.38
2023-05-20T22:21:17.143Z,100733.09
2023-05-20T22:24:19.066Z,100725.47
2023-05-20T22:27:21.374Z,100720.31
2023-05-20T22:30:23.127Z,100752.97
2023-05-20T22:33:25.183Z,100740.62
2023-05-20T22:36:28.033Z,100735.47
2023-05-20T22:39:29.803Z,100740.47
2023-05-20T22:42:31.569Z,100701.25
2023-05-20T22:45:33.526Z,100728.09
2023-05-20T22:48:35.887Z,100726.00
2023-05-20T22:51:38.626Z,100722.69
2023-05-20T22:54:40.639Z,100717.88
2023-05-20T22:57:42.509Z,100714.94
2023-05-20T23:00:44.680Z,100720.69
2023-05-20T23:03:46.889Z,100715.78
2023-05-20T23:06:48.679Z,100724.63
2023-05-20T23:09:50.613Z,100733.00
2023-05-20T23:12:52.491Z,100723.91
2023-05-20T23:15:54.305Z,100722.19
2023-05-20T23:18:56.466Z,100717.88
2023-05-20T23:21:58.392Z,100717.38
2023-05-20T23:25:02.347Z,100727.56
2023-05-20T23:28:04.462Z,100711.34
2023-05-20T23:31:06.695Z,100722.16
2023-05-20T23:34:08.756Z,100732.44
2023-05-20T23:37:10.709Z,100734.12
2023-05-20T23:40:13.415Z,100733.81
2023-05-20T23:43:15.360Z,100734.03
2023-05-20T23:46:18.488Z,100734.44
2023-05-20T23:49:24.367Z,100726.56
2023-05-20T23:52:26.738Z,100735.41
2023-05-20T23:55:28.527Z,100730.00
2023-05-20T23:58:30.240Z,100722.38
